CheckWX is a tool to help pilots better visualize weather data.  It is not intended as a substitute for an official pre-flight weather briefing.

21:39:24 UTC

SBRB TAF
Plácido de Castro Airport
Rio Branco, Brazil
TAF SBRB 201600Z 2018/2118 31008KT 9999 SCT025 FEW030TCU TX30/2019Z TN23/2109Z PROB30 TEMPO 2020/2024 27008KT 2000 TSRA SCT020 FEW025CB BECMG 2102/2104 36005KT SCT020 BECMG 2105/2107 00000KT CAVOK BECMG 2108/2110 2000 BR BKN010 BECMG 2114/2116 9999 36003KT SCT025 RMK PFF

Mar-20@
18:00 UTC

Mar-20 @ 18:00 UTC

Mar-21@
02:00 UTC

Mar-21 @ 02:00 UTC

TAF SBRB 201600Z 2018/2118 31008KT 9999 SCT025 FEW030TCU TX30/2019Z TN23/2109Z
Wind
  • 310° at 8 KTS
Cloud Levels
  • Scattered at 2,500' AGL
  • Few at 3,000' AGL

Mar-20@
20:00 UTC

Mar-20 @ 20:00 UTC

Mar-21@
00:00 UTC

Mar-21 @ 00:00 UTC

PROB30 TEMPO 2020/2024 27008KT 2000 TSRA SCT020 FEW025CB

Temporary - 30% Likelihood

Temporary - 30% Likelihood during this time.

Wind
  • 270° at 8 KTS
Conditions
Thunderstorm, Rain
Cloud Levels
  • Scattered at 2,000' AGL
  • Few at 2,500' AGL

Mar-21@
02:00 UTC

Mar-21 @ 02:00 UTC

Mar-21@
05:00 UTC

Mar-21 @ 05:00 UTC

BECMG 2102/2104 36005KT SCT020

Becoming

Becoming Conditions expected by Thu, Mar 21, 2019 @ 04:00 UTC

Wind
  • 360° at 5 KTS
Cloud Levels
  • Scattered at 2,000' AGL

Mar-21@
05:00 UTC

Mar-21 @ 05:00 UTC

Mar-21@
08:00 UTC

Mar-21 @ 08:00 UTC

BECMG 2105/2107 00000KT CAVOK

Becoming

Becoming Conditions expected by Thu, Mar 21, 2019 @ 07:00 UTC

Conditions
No significant weather
Cloud Levels
  • No significant clouds

Mar-21@
08:00 UTC

Mar-21 @ 08:00 UTC

Mar-21@
14:00 UTC

Mar-21 @ 14:00 UTC

BECMG 2108/2110 2000 BR BKN010

Becoming

Becoming Conditions expected by Thu, Mar 21, 2019 @ 10:00 UTC

Conditions
Mist
Cloud Levels
  • Broken at 1,000' AGL

Mar-21@
14:00 UTC

Mar-21 @ 14:00 UTC

Mar-21@
18:00 UTC

Mar-21 @ 18:00 UTC

BECMG 2114/2116 9999 36003KT SCT025 RMK PFF

Becoming

Becoming Conditions expected by Thu, Mar 21, 2019 @ 16:00 UTC

Wind
  • 360° at 3 KTS
Conditions
Mist
Cloud Levels
  • Scattered at 2,500' AGL